Latest Coastal Weather Observations for Smithton

IDV60701

Issued at 3:21 pm EST Thursday 2 July 2015 (issued every 10 minutes, with the page automatically refreshed every 10 minutes)

About coastal observations | Map of coastal stations | Coastal observations for VIC | Marine services | Other Formats
Station Details ID: 091292 Name: SMITHTON AERODROME Lat: -40.83 Lon: 145.08 Height: 7.5 m
Data from the previous 72 hours. | See also: Recent months at Smithton
Date/Time
EST
Temp

°C
Wind Pressure Rain
since 9am
mm
Weather Cloud Vis
km
Sea
Height
m
Swell
Dir
 
Speed
knots
Gust
knots
hPa Trend Height
m
Period
s
Dir
02/03:19pm 8.3 SW 15 28 1021.5 - 1.0 - - - - - - -
02/03:00pm 8.5 SW 16 20 1021.1 - 1.0 - - - - - - -
02/02:30pm 9.0 SW 11 17 1020.6 - 0.6 - - - - - - -
02/02:00pm 8.1 SW 15 19 1020.4 - 0.6 - - - - - - -
02/01:30pm 9.3 SW 18 28 1019.6 - 0.2 - - - - - - -
02/01:19pm 8.9 SW 19 30 1019.3 - 0.2 - - - - - - -
02/01:00pm 9.2 SW 18 24 1019.2 - 0.2 - - - - - - -
02/12:39pm 8.9 SW 21 34 1019.3 - 0.0 - - - - - - -
02/12:30pm 10.1 SW 17 25 1018.9 - 0.0 - - - - - - -
02/12:00pm 9.6 SW 21 32 1018.7 - 0.0 - - - - - - -
02/11:48am 9.5 SW 22 33 1018.6 - 0.0 - - - - - - -
02/11:30am 9.1 SW 18 27 1018.5 - 0.0 - - - - - - -
02/11:00am 8.9 SW 20 31 1018.5 - 0.0 - - - - - - -
02/10:57am 9.2 SW 18 29 1018.3 - 0.0 - - - - - - -
02/10:30am 8.4 SW 17 23 1017.9 - 0.0 - - - - - - -
02/10:17am 8.2 SW 21 25 1017.6 - 0.0 - - - - - - -
02/10:00am 7.7 SSW 9 11 1017.6 - 0.0 - - - - - - -
02/09:30am 6.6 SW 10 16 1017.5 - 0.0 - - - - - - -
02/09:00am 6.1 SW 7 8 1016.4 - 6.6 - - - - - - -
02/08:30am 5.4 SW 7 11 1016.1 - 6.6 - - - - - - -
02/08:00am 5.6 SSW 9 12 1015.6 - 6.4 - - - - - - -
02/07:30am 5.8 S 12 15 1014.5 - 6.4 - - - - - - -
02/07:00am 5.8 WSW 12 18 1014.4 - 6.4 - - - - - - -
02/06:30am 5.7 SW 12 17 1013.8 - 6.0 - - - - - - -
02/06:00am 6.1 WSW 19 27 1013.3 - 6.0 - - - - - - -
02/05:41am 6.7 W 17 28 1013.4 - 5.4 - - - - - - -
02/05:30am 6.9 W 15 19 1013.0 - 5.2 - - - - - - -
02/05:25am 6.9 W 15 21 1012.9 - 5.2 - - - - - - -
02/05:00am 5.1 WSW 8 10 1012.6 - 5.2 - - - - - - -
02/04:31am 6.8 SW 19 29 1012.9 - 5.2 - - - - - - -
02/04:30am 6.9 SW 20 29 1012.8 - 5.2 - - - - - - -
02/04:21am 7.4 SW 21 27 1012.7 - 5.2 - - - - - - -
02/04:00am 6.5 WSW 10 12 1012.4 - 5.0 - - - - - - -
02/03:30am 7.2 W 11 13 1012.4 - 5.0 - - - - - - -
02/03:00am 7.2 W 9 11 1012.7 - 5.0 - - - - - - -
02/02:30am 7.1 W 10 13 1012.5 - 5.0 - - - - - - -
02/02:00am 7.4 W 12 15 1012.3 - 5.0 - - - - - - -
02/01:30am 7.2 WSW 13 18 1012.4 - 5.0 - - - - - - -
02/01:17am 7.7 SW 23 35 1012.4 - 5.0 - - - - - - -
02/01:06am 8.4 W 16 27 1012.7 - 4.6 - - - - - - -
02/01:00am 8.5 W 15 20 1012.2 - 4.4 - - - - - - -
02/12:33am 8.6 WSW 17 33 1012.3 - 4.4 - - - - - - -
02/12:30am 8.9 WSW 16 21 1012.5 - 4.2 - - - - - - -
02/12:00am 9.6 W 15 23 1011.9 - 3.8 - - - - - - -
 
Date/Time
EST
Temp

°C
Wind Pressure Rain
since 9am
mm
Weather Cloud Vis
km
Sea
Height
m
Swell
Dir
 
Speed
knots
Gust
knots
hPa Trend Height
m
Period
s
Dir
01/11:30pm 9.9 WSW 19 26 1012.4 - 3.8 - - - - - - -
01/11:00pm 9.6 WSW 13 16 1012.2 - 3.8 - - - - - - -
01/10:30pm 10.0 WSW 16 23 1012.4 - 3.8 - - - - - - -
01/10:06pm 10.5 WSW 15 25 1012.2 - 3.8 - - - - - - -
01/10:00pm 10.6 WSW 14 25 1012.2 - 3.8 - - - - - - -
01/09:30pm 9.9 W 9 14 1012.1 - 3.8 - - - - - - -
01/09:00pm 9.7 W 17 22 1012.3 - 3.6 - - - - - - -
01/08:43pm 9.3 W 21 27 1012.5 - 3.6 - - - - - - -
01/08:30pm 9.9 WNW 27 41 1012.7 - 3.0 - - - - - - -
01/08:01pm 12.4 WNW 23 33 1012.0 - 1.0 - - - - - - -
01/08:00pm 12.5 WNW 24 33 1012.0 - 1.0 - - - - - - -
01/07:42pm 12.7 NW 22 33 1012.4 - 0.8 - - - - - - -
01/07:30pm 12.5 WNW 20 27 1012.7 - 0.8 - - - - - - -
01/07:00pm 12.5 WNW 18 27 1013.3 - 0.8 - - - - - - -
01/06:30pm 12.1 WNW 15 23 1013.6 - 0.8 - - - - - - -
01/06:00pm 11.7 WNW 16 21 1014.3 - 0.8 - - - - - - -
01/05:30pm 11.5 WNW 12 16 1014.8 - 0.8 - - - - - - -
01/05:00pm 11.2 WNW 11 16 1015.2 - 0.8 - - - - - - -
01/04:30pm 10.8 WNW 11 16 1015.8 - 0.6 - - - - - - -
01/04:06pm 11.1 WNW 21 31 1015.9 - 0.6 - - - - - - -
01/04:00pm 11.1 WNW 20 29 1016.0 - 0.6 - - - - - - -
01/03:37pm 12.3 WNW 15 25 1016.3 - 0.2 - - - - - - -
01/03:30pm 12.6 WNW 15 23 1016.4 - 0.2 - - - - - - -
01/03:00pm 13.0 WNW 19 26 1016.9 - 0.2 - - - - - - -
01/02:45pm 13.5 WNW 18 28 1016.9 - 0.2 - - - - - - -
01/02:30pm 13.4 WNW 20 26 1017.2 - 0.2 - - - - - - -
01/02:00pm 12.2 WNW 12 21 1017.6 - 0.2 - - - - - - -
01/01:30pm 12.3 W 14 18 1018.3 - 0.2 - - - - - - -
01/01:06pm 12.6 NW 19 32 1018.9 - 0.2 - - - - - - -
01/01:00pm 13.3 NW 18 24 1018.8 - 0.2 - - - - - - -
01/12:30pm 14.4 WNW 16 21 1019.4 - 0.2 - - - - - - -
01/12:00pm 13.4 WNW 15 23 1020.2 - 0.2 - - - - - - -
01/11:30am 13.0 WNW 17 22 1020.8 - 0.2 - - - - - - -
01/11:00am 13.5 WNW 14 21 1021.4 - 0.2 - - - - - - -
01/10:30am 12.8 WNW 11 13 1021.8 - 0.2 - - - - - - -
01/10:00am 11.5 NW 7 8 1022.0 - 0.0 - - - - - - -
01/09:30am 9.8 NW 7 9 1022.4 - 0.0 - - - - - - -
01/09:00am 7.8 CALM 0 0 1022.8 - 0.4 - - - - - - -
01/08:30am 5.8 S 4 5 1022.9 - 0.4 - - - - - - -
01/08:00am 6.4 CALM 0 0 1022.9 - 0.4 - - - - - - -
01/07:30am 6.9 CALM 0 0 1023.1 - 0.4 - - - - - - -
01/07:00am 6.9 S 2 4 1023.2 - 0.4 - - - - - - -
01/06:30am 7.0 S 5 7 1023.5 - 0.4 - - - - - - -
01/06:00am 7.2 S 7 9 1023.4 - 0.4 - - - - - - -
01/05:30am 6.2 S 2 5 1023.7 - 0.4 - - - - - - -
01/05:00am 6.2 CALM 0 0 1023.9 - 0.4 - - - - - - -
01/04:30am 6.0 CALM 0 0 1024.1 - 0.4 - - - - - - -
01/04:00am 6.0 S 1 4 1024.2 - 0.4 - - - - - - -
01/03:30am 5.9 S 4 5 1024.4 - 0.4 - - - - - - -
01/03:00am 5.1 SSW 3 4 1024.5 - 0.4 - - - - - - -
01/02:30am 4.7 SSW 1 3 1024.8 - 0.4 - - - - - - -
01/02:00am 4.8 SSW 4 6 1024.8 - 0.4 - - - - - - -
01/01:30am 4.0 SSW 3 4 1025.0 - 0.2 - - - - - - -
01/01:00am 4.0 SSW 4 6 1025.2 - 0.2 - - - - - - -
01/12:30am 4.0 SSW 4 6 1025.4 - 0.2 - - - - - - -
01/12:00am 4.8 CALM 0 0 1025.7 - 0.2 - - - - - - -
 
Date/Time
EST
Temp

°C
Wind Pressure Rain
since 9am
mm
Weather Cloud Vis
km
Sea
Height
m
Swell
Dir
 
Speed
knots
Gust
knots
hPa Trend Height
m
Period
s
Dir
30/11:30pm 5.5 SW 3 3 1025.7 - 0.2 - - - - - - -
30/11:00pm 5.3 SW 4 5 1026.0 - 0.0 - - - - - - -
30/10:30pm 4.1 CALM 0 0 1026.1 - 0.0 - - - - - - -
30/10:00pm 3.2 CALM 0 0 1026.1 - 0.0 - - - - - - -
30/09:30pm 4.0 CALM 0 0 1026.2 - 0.0 - - - - - - -
30/09:00pm 5.0 SSW 3 4 1026.1 - 0.0 - - - - - - -
30/08:30pm 5.4 SW 4 5 1026.1 - 0.0 - - - - - - -
30/08:00pm 6.2 SW 5 6 1026.0 - 0.0 - - - - - - -
30/07:30pm 7.1 WSW 8 10 1026.0 - 0.0 - - - - - - -
30/07:00pm 5.7 WSW 5 7 1026.0 - 0.0 - - - - - - -
30/06:30pm 6.5 SSW 7 7 1025.8 - 0.0 - - - - - - -
30/06:00pm 7.6 SSW 5 6 1025.7 - 0.0 - - - - - - -
30/05:30pm 8.2 SSW 4 5 1025.6 - 0.0 - - - - - - -
30/05:00pm 9.4 SSW 4 5 1025.5 - 0.0 - - - - - - -
30/04:30pm 10.6 SSW 7 9 1025.4 - 0.0 - - - - - - -
30/04:00pm 11.6 WSW 10 13 1025.3 - 0.0 - - - - - - -
30/03:30pm 12.1 SW 10 13 1025.0 - 0.0 - - - - - - -
30/03:00pm 12.5 W 10 14 1025.0 - 0.0 - - - - - - -
30/02:30pm 11.7 W 8 11 1025.1 - 0.0 - - - - - - -
30/02:00pm 12.1 WSW 10 13 1025.3 - 0.0 - - - - - - -
30/01:30pm 12.7 W 11 15 1025.4 - 0.0 - - - - - - -
30/01:00pm 11.8 W 9 12 1025.8 - 0.0 - - - - - - -
30/12:30pm 12.5 W 11 14 1026.0 - 0.0 - - - - - - -
30/12:00pm 12.4 W 6 9 1026.2 - 0.0 - - - - - - -
30/11:30am 11.2 WSW 7 9 1026.8 - 0.0 - - - - - - -
30/11:00am 12.9 W 8 11 1027.3 - 0.0 - - - - - - -
30/10:30am 12.0 WSW 5 9 1027.5 - 0.0 - - - - - - -
30/10:00am 10.6 SW 6 7 1027.6 - 0.0 - - - - - - -
30/09:30am 10.1 SW 6 8 1027.5 - 0.0 - - - - - - -
30/09:00am 9.7 WSW 5 7 1027.5 - 0.4 - - - - - - -
30/08:30am 9.1 SW 7 8 1027.4 - 0.4 - - - - - - -
30/08:00am 9.2 WSW 8 11 1027.2 - 0.2 - - - - - - -
30/07:30am 8.8 WNW 4 5 1027.0 - 0.2 - - - - - - -
30/07:00am 8.9 WNW 4 4 1026.9 - 0.2 - - - - - - -
30/06:30am 8.8 SW 5 6 1026.8 - 0.2 - - - - - - -
30/06:00am 7.8 SW 4 5 1026.6 - 0.2 - - - - - - -
30/05:30am 8.5 SW 5 6 1026.5 - 0.2 - - - - - - -
30/05:00am 8.7 WSW 6 7 1026.5 - 0.2 - - - - - - -
30/04:30am 9.2 SW 8 10 1026.5 - 0.2 - - - - - - -
30/04:00am 8.9 W 5 6 1026.7 - 0.2 - - - - - - -
30/03:30am 8.2 W 4 5 1027.0 - 0.2 - - - - - - -
30/03:00am 8.9 W 6 7 1027.3 - 0.2 - - - - - - -
30/02:30am 9.2 W 5 6 1027.4 - 0.2 - - - - - - -
30/02:00am 9.4 W 5 5 1027.4 - 0.2 - - - - - - -
30/01:30am 9.5 W 5 6 1027.6 - 0.2 - - - - - - -
30/01:00am 9.4 WSW 4 5 1027.7 - 0.2 - - - - - - -
30/12:30am 9.2 SW 6 7 1028.0 - 0.2 - - - - - - -
30/12:00am 9.8 W 5 6 1028.3 - 0.2 - - - - - - -
 
Date/Time
EST
Temp

°C
Wind Pressure Rain
since 9am
mm
Weather Cloud Vis
km
Sea
Height
m
Swell
Dir
 
Speed
knots
Gust
knots
hPa Trend Height
m
Period
s
Dir
29/11:30pm 9.7 W 6 7 1028.2 - 0.2 - - - - - - -
29/11:00pm 10.0 WSW 6 8 1028.3 - 0.2 - - - - - - -
29/10:30pm 10.0 W 5 6 1028.3 - 0.2 - - - - - - -
29/10:00pm 10.0 W 4 6 1028.4 - 0.2 - - - - - - -
29/09:30pm 10.2 WSW 7 9 1028.6 - 0.2 - - - - - - -
29/09:00pm 10.0 W 6 7 1028.8 - 0.2 - - - - - - -
29/08:30pm 9.9 WSW 6 7 1028.8 - 0.2 - - - - - - -
29/08:00pm 9.7 W 5 7 1028.8 - 0.2 - - - - - - -
29/07:30pm 8.5 WSW 5 6 1028.8 - 0.2 - - - - - - -
29/07:00pm 9.6 WSW 5 6 1028.9 - 0.2 - - - - - - -
29/06:30pm 10.7 WSW 5 6 1028.8 - 0.0 - - - - - - -
29/06:00pm 10.8 WSW 5 6 1028.8 - 0.0 - - - - - - -
29/05:30pm 10.7 WSW 8 10 1028.6 - 0.0 - - - - - - -
29/05:00pm 11.3 W 8 12 1028.6 - 0.0 - - - - - - -
29/04:30pm 11.5 WSW 10 13 1028.6 - 0.0 - - - - - - -
29/04:00pm 11.9 WSW 10 13 1028.7 - 0.0 - - - - - - -
29/03:30pm 12.2 W 11 14 1028.7 - 0.0 - - - - - - -

Other Formats:

Comma delimited format used in spreadsheet applications
http://www.bom.gov.au/fwo/IDV60701/IDV60701.94953.axf

JavaScript Object Notation format (JSON) in row-major order
http://www.bom.gov.au/fwo/IDV60701/IDV60701.94953.json